1996 Tropical Cyclone ISOBEL (1996025S14125)


IBTrACS version v04r00. Visit IBTrACS website for data access.
Please direct all questions to the IBTrACS Q and A forum

Storm track - Intensity - Wind Radii - Intensity Data - Source Data - All data

Summary Information

Satellite image near maximum intensity
Storm ID 1996025S14125
Start Jan 25 00Z
Max Intensity 45 kt (Jan 29 00Z), 995 mb (Jan 29 07Z)
End Feb 1 01Z
ATCF IDs ,SH111996
Track status Best track data.

Storm track plot

Map of storm track

Intensity plots

Map of storm track

Radial wind information

Map of storm track

Position and Intensity Table

BASIN ISO_TIME_________ NATURE LAT LON WMO WIND WMO PRES USA WIND BOM WIND BOM PRES NEUMANN WIND
degrees north degrees east kts mb kts kts mb kts
SI 1996-01-25 00:00:00 TS -14.20 124.90 15 15
SI 03:00:00 TS -14.15 124.74 15 15
SI 06:00:00 TS -14.10 124.60 15 15
SI 09:00:00 TS -14.06 124.49 15 15
SI 12:00:00 TS -14.00 124.40 15 15
SI 15:00:00 TS -13.91 124.34 15 15
SI 18:00:00 TS -13.80 124.30 15 15
SI 21:00:00 TS -13.71 124.26 15 15
SI 1996-01-26 00:00:00 TS -13.60 124.20 15 15
SI 03:00:00 TS -13.46 124.10 15 15
SI 06:00:00 TS -13.30 124.00 15 15
SI 09:00:00 TS -13.14 123.94 15 15
SI 12:00:00 TS -13.00 123.90 15 15
SI 15:00:00 TS -12.89 123.86 15 15
SI 18:00:00 TS -12.80 123.80 15 15
SI 21:00:00 TS -12.69 123.72 15 15
SI 1996-01-27 00:00:00 TS -12.60 123.60 15 15
SI 01:00:00 TS -12.55 123.46 25 1000 15 25 1000 15
SI 03:00:00 TS -12.50 123.25 17 25 1000 17
SI 06:00:00 TS -12.45 122.93 20 25 1000 20
SI 07:00:00 TS -12.44 122.79 25 1000 20 25 1000 20
SI 09:00:00 TS -12.45 122.62 22 25 1000 22
SI 12:00:00 TS -12.47 122.33 25 25 1000 25
SI 13:00:00 TS -12.48 122.22 25 1000 25 25 1000 25
SI 15:00:00 TS -12.49 121.99 27 25 1000 27
SI 18:00:00 TS -12.51 121.60 30 25 1000 30
SI 19:00:00 TS -12.50 121.47 25 1000 30 25 1000 30
SI 21:00:00 TS -12.49 121.20 30 25 1000 30
SI 1996-01-28 00:00:00 TS -12.46 120.78 30 25 1000 30
SI 01:00:00 TS -12.46 120.63 25 1000 30 25 1000 30
SI 03:00:00 TS -12.48 120.34 30 25 1000 30
SI 04:00:00 TS -12.49 120.20 25 1000 30 25 1000 30
SI 06:00:00 TS -12.54 119.94 30 25 1000 30
SI 07:00:00 TS -12.57 119.80 25 1000 30 25 1000 30
SI 09:00:00 TS -12.64 119.49 32 25 1000 32
SI 10:00:00 TS -12.67 119.33 25 1000 33 25 1000 33
SI 12:00:00 TS -12.74 119.04 35 25 1000 35
SI 13:00:00 TS -12.78 118.90 25 1000 35 25 1000 35
SI 15:00:00 TS -12.86 118.61 37 25 1000 37
SI 16:00:00 TS -12.91 118.47 25 1000 38 25 1000 38
SI 18:00:00 TS -13.00 118.18 40 25 1000 40
SI 19:00:00 TS -13.05 118.03 25 1000 40 25 1000 40
SI 21:00:00 TS -13.13 117.74 42 28 998 42
SI 22:00:00 TS -13.17 117.59 30 998 43 30 998 43
SI 1996-01-29 00:00:00 TS -13.28 117.31 45 30 998 45
SI 01:00:00 TS -13.35 117.17 30 998 45 30 998 45
SI 03:00:00 TS -13.50 116.91 45 30 998 45
SI 04:00:00 TS -13.58 116.79 30 998 45 30 998 45
SI 06:00:00 TS -13.72 116.56 45 33 996 45
SI 07:00:00 TS -13.78 116.47 35 995 45 35 995 45
SI 09:00:00 TS -13.92 116.32 45 35 995 45
SI 10:00:00 TS -13.98 116.26 35 995 45 35 995 45
SI 12:00:00 TS -14.05 116.20 45 35 995 45
SI 13:00:00 TS -14.08 116.17 35 995 45 35 995 45
SI 15:00:00 TS -14.17 116.12 45 35 995 45
SI 16:00:00 TS -14.22 116.10 35 995 45 35 995 45
SI 18:00:00 TS -14.30 116.07 45 35 995 45
SI 19:00:00 TS -14.33 116.04 35 995 45 35 995 45
SI 21:00:00 TS -14.37 116.00 45 35 995 45
SI 22:00:00 TS -14.39 115.98 35 995 45 35 995 45
SI 1996-01-30 00:00:00 TS -14.45 115.92 45 35 995 45
SI 01:00:00 TS -14.50 115.88 35 995 45 35 995 45
SI 03:00:00 TS -14.60 115.77 45 35 995 45
SI 04:00:00 TS -14.66 115.71 35 995 45 35 995 45
SI 06:00:00 TS -14.83 115.62 45 35 995 45
SI 07:00:00 TS -14.90 115.58 35 995 45 35 995 45
SI 09:00:00 TS -14.99 115.52 45 35 995 45
SI 10:00:00 TS -15.03 115.51 35 995 45 35 995 45
SI 12:00:00 TS -15.17 115.47 45 35 995 45
SI 13:00:00 TS -15.23 115.45 35 995 44 35 995 44
SI 15:00:00 TS -15.34 115.41 42 35 995 42
SI 16:00:00 TS -15.39 115.39 35 995 41 35 995 41
SI 18:00:00 TS -15.51 115.34 40 35 995 40
SI 19:00:00 TS -15.57 115.31 35 995 40 35 995 40
SI 21:00:00 TS -15.73 115.25 40 35 995 40
SI 22:00:00 TS -15.81 115.21 35 995 40 35 995 40
SI 1996-01-31 00:00:00 TS -15.97 115.10 40 31 996 40
SI 01:00:00 TS -16.05 115.06 30 998 39 30 998 39
SI 03:00:00 TS -16.14 115.04 37 30 998 37
SI 04:00:00 TS -16.18 115.03 30 998 36 30 998 36
SI 06:00:00 TS -16.29 114.98 35 26 999 35
SI 07:00:00 TS -16.34 114.94 25 1000 34 25 1000 34
SI 09:00:00 TS -16.43 114.85 32 25 1000 32
SI 10:00:00 TS -16.47 114.81 25 1000 31 25 1000 31
SI 12:00:00 TS -16.55 114.73 30 25 1000 30
SI 13:00:00 TS -16.60 114.70 25 1000 29 25 1000 29
SI 15:00:00 TS -16.70 114.62 27 25 1001 27
SI 16:00:00 TS -16.75 114.60 25 1002 26 25 1002 26
SI 18:00:00 TS -16.86 114.60 25 25 1002 25
SI 19:00:00 NR -16.90 114.70 25 1002 25 1002
SI 21:00:00 NR -17.03 114.71 25 1002
SI 22:00:00 NR -17.10 114.70 25 1002 25 1002
SI 1996-02-01 00:00:00 NR -17.23 114.64 25 1002
SI 01:00:00 NR -17.30 114.60 25 1002 25 1002

Source Information

Agency Information
USA bsh111996.txt
TOKYO
CMA
HKO
NEWDELHI
REUNION
BOM IDCKMSTM0S.csv:Line=18613:ISOBEL
NADI
WELLINGTON
DS824
TD9636
TD9635
NEUMANN tracks.sh:Storm=1047:ISOBEL:BSH111996:JTWC&BM847
MLC

All available IBTrACS Data

SEASON BASIN SUBBASIN ISO_TIME_________ NATURE LAT LON WMO WIND WMO PRES WMO AGENCY DIST2LAND LANDFALL IFLAG USA AGENCY USA ATCF_ID USA LAT USA LON USA WIND USA SSHS BOM LAT BOM LON BOM TYPE BOM WIND BOM PRES BOM CI BOM ROCI BOM POS_METHOD BOM PRES_METHOD NEUMANN LAT NEUMANN LON NEUMANN CLASS NEUMANN WIND STORM SPEED STORM DIR
Year degrees north degrees east kts mb km km degrees north degrees east kts 1 degrees north degrees east kts mb 1 nmile degrees north degrees east kts kts degrees
1996 SI WA 1996-01-25 00:00:00 TS -14.20 124.90 55 55 O___________O_ jtwc_sh SH111996 -14.20 124.90 15 -1 -14.20 124.90 TC 15 3 289
1996 SI WA 03:00:00 TS -14.15 124.74 77 77 P___________P_ SH111996 -14.15 124.74 15 -1 -14.15 124.74 TC 15 3 289
1996 SI WA 06:00:00 TS -14.10 124.60 85 85 O___________O_ jtwc_sh SH111996 -14.10 124.60 15 -1 -14.10 124.60 TC 15 3 290
1996 SI WA 09:00:00 TS -14.06 124.49 93 93 P___________P_ SH111996 -14.06 124.49 15 -1 -14.06 124.49 TC 15 2 297
1996 SI WA 12:00:00 TS -14.00 124.40 109 109 O___________O_ jtwc_sh SH111996 -14.00 124.40 15 -1 -14.00 124.40 TC 15 2 318
1996 SI WA 15:00:00 TS -13.91 124.34 124 124 P___________P_ SH111996 -13.91 124.34 15 -1 -13.91 124.34 TC 15 2 333
1996 SI WA 18:00:00 TS -13.80 124.30 132 132 O___________O_ jtwc_sh SH111996 -13.80 124.30 15 -1 -13.80 124.30 TC 15 2 337
1996 SI WA 21:00:00 TS -13.71 124.26 139 139 P___________P_ SH111996 -13.71 124.26 15 -1 -13.71 124.26 TC 15 2 333
1996 SI WA 1996-01-26 00:00:00 TS -13.60 124.20 155 155 O___________O_ jtwc_sh SH111996 -13.60 124.20 15 -1 -13.60 124.20 TC 15 3 328
1996 SI WA 03:00:00 TS -13.46 124.10 171 171 P___________P_ SH111996 -13.46 124.10 15 -1 -13.46 124.10 TC 15 4 327
1996 SI WA 06:00:00 TS -13.30 124.00 194 194 O___________O_ jtwc_sh SH111996 -13.30 124.00 15 -1 -13.30 124.00 TC 15 4 334
1996 SI WA 09:00:00 TS -13.14 123.94 218 218 P___________P_ SH111996 -13.14 123.94 15 -1 -13.14 123.94 TC 15 3 343
1996 SI WA 12:00:00 TS -13.00 123.90 227 227 O___________O_ jtwc_sh SH111996 -13.00 123.90 15 -1 -13.00 123.90 TC 15 3 342
1996 SI WA 15:00:00 TS -12.89 123.86 236 236 P___________P_ SH111996 -12.89 123.86 15 -1 -12.89 123.86 TC 15 2 333
1996 SI WA 18:00:00 TS -12.80 123.80 252 252 O___________O_ jtwc_sh SH111996 -12.80 123.80 15 -1 -12.80 123.80 TC 15 2 326
1996 SI WA 21:00:00 TS -12.69 123.72 257 246 P___________P_ SH111996 -12.69 123.72 15 -1 -12.69 123.72 TC 15 3 316
1996 SI WA 1996-01-27 00:00:00 TS -12.60 123.60 246 246 O___________O_ jtwc_sh SH111996 -12.60 123.60 15 -1 -12.60 123.60 TC 15 4 299
1996 SI WA 01:00:00 TS -12.55 123.46 25 1000 bom 246 235 P_____O_____P_ SH111996 -12.57 123.55 15 -1 -12.40 122.80 20 25 1000 1.50 53 3 5 -12.57 123.55 TC 15 7 287
1996 SI WA 03:00:00 TS -12.50 123.25 237 237 P_____P_____P_ SH111996 -12.53 123.42 17 -1 -12.37 122.56 20 25 1000 53 -12.53 123.42 TC 17 6 281
1996 SI WA 06:00:00 TS -12.45 122.93 244 233 O_____P_____O_ jtwc_sh SH111996 -12.50 123.20 20 -1 -12.32 122.21 20 25 1000 53 -12.50 123.20 TC 20 7 277
1996 SI WA 07:00:00 TS -12.44 122.79 25 1000 bom 236 236 P_____O_____P_ SH111996 -12.51 123.13 20 -1 -12.30 122.10 20 25 1000 2.00 53 3 5 -12.51 123.13 TC 20 6 271
1996 SI WA 09:00:00 TS -12.45 122.62 244 244 P_____P_____P_ SH111996 -12.53 122.98 22 -1 -12.27 121.89 20 25 1000 53 -12.53 122.98 TC 22 5 265
1996 SI WA 12:00:00 TS -12.47 122.33 269 269 O_____P_____O_ jtwc_sh SH111996 -12.60 122.70 25 -1 -12.22 121.60 20 25 1000 53 -12.60 122.70 TC 25 6 265
1996 SI WA 13:00:00 TS -12.48 122.22 25 1000 bom 274 274 P_____O_____P_ SH111996 -12.62 122.59 25 -1 -12.20 121.50 20 25 1000 2.00 53 3 5 -12.62 122.59 TC 25 7 266
1996 SI WA 15:00:00 TS -12.49 121.99 286 274 P_____P_____P_ SH111996 -12.66 122.33 27 -1 -12.17 121.31 20 25 1000 53 -12.66 122.33 TC 27 7 268
1996 SI WA 18:00:00 TS -12.51 121.60 274 269 O_____P_____O_ jtwc_sh SH111996 -12.70 121.90 30 -1 -12.12 121.01 20 25 1000 53 -12.70 121.90 TC 30 8 269
1996 SI WA 19:00:00 TS -12.50 121.47 25 1000 bom 269 257 P_____O_____P_ SH111996 -12.71 121.76 30 -1 -12.10 120.90 20 25 1000 2.00 53 3 5 -12.71 121.76 TC 30 8 273
1996 SI WA 21:00:00 TS -12.49 121.20 257 248 P_____P_____P_ SH111996 -12.71 121.46 30 -1 -12.04 120.68 20 25 1000 61 -12.71 121.46 TC 30 8 273
1996 SI WA 1996-01-28 00:00:00 TS -12.46 120.78 248 246 O_____P_____O_ jtwc_sh SH111996 -12.70 121.00 30 -1 -11.99 120.33 20 25 1000 75 -12.70 121.00 TC 30 8 272
1996 SI WA 01:00:00 TS -12.46 120.63 25 1000 bom 246 246 P_____O_____P_ SH111996 -12.70 120.85 30 -1 -12.00 120.20 20 25 1000 2.00 80 3 5 -12.70 120.85 TC 30 8 268
1996 SI WA 03:00:00 TS -12.48 120.34 247 247 P_____P_____P_ SH111996 -12.69 120.55 30 -1 -12.05 119.93 20 25 1000 80 -12.69 120.55 TC 30 8 266
1996 SI WA 04:00:00 TS -12.49 120.20 25 1000 bom 248 248 P_____O_____P_ SH111996 -12.69 120.40 30 -1 -12.10 119.80 20 25 1000 2.00 80 3 5 -12.69 120.40 TC 30 8 261
1996 SI WA 06:00:00 TS -12.54 119.94 254 254 O_____P_____O_ jtwc_sh SH111996 -12.70 120.10 30 -1 -12.23 119.61 20 25 1000 80 -12.70 120.10 TC 30 8 259
1996 SI WA 07:00:00 TS -12.57 119.80 25 1000 bom 268 268 P_____O_____P_ SH111996 -12.71 119.95 30 -1 -12.30 119.50 20 25 1000 2.00 80 3 5 -12.71 119.95 TC 30 9 258
1996 SI WA 09:00:00 TS -12.64 119.49 279 279 P_____P_____P_ SH111996 -12.74 119.65 32 -1 -12.43 119.17 20 25 1000 80 -12.74 119.65 TC 32 9 258
1996 SI WA 10:00:00 TS -12.67 119.33 25 1000 bom 296 296 P_____O_____P_ SH111996 -12.76 119.50 33 -1 -12.50 119.00 20 25 1000 2.00 80 3 5 -12.76 119.50 TC 33 9 257
1996 SI WA 12:00:00 TS -12.74 119.04 309 309 O_____P_____O_ jtwc_sh SH111996 -12.80 119.20 35 0 -12.63 118.73 20 25 1000 80 -12.80 119.20 TC 35 9 256
1996 SI WA 13:00:00 TS -12.78 118.90 25 1000 bom 323 323 P_____O_____P_ SH111996 -12.81 119.05 35 0 -12.70 118.60 20 25 1000 2.00 80 3 5 -12.81 119.05 TC 35 9 254
1996 SI WA 15:00:00 TS -12.86 118.61 349 349 P_____P_____P_ SH111996 -12.84 118.75 37 0 -12.89 118.33 20 25 1000 97 -12.84 118.75 TC 37 9 253
1996 SI WA 16:00:00 TS -12.91 118.47 25 1000 bom 354 360 P_____O_____P_ SH111996 -12.86 118.60 38 0 -13.00 118.20 20 25 1000 2.00 107 3 5 -12.86 118.60 TC 38 9 251
1996 SI WA 18:00:00 TS -13.00 118.18 381 381 O_____P_____O_ jtwc_sh SH111996 -12.90 118.30 40 0 -13.21 117.93 20 25 1000 107 -12.90 118.30 TC 40 9 252
1996 SI WA 19:00:00 TS -13.05 118.03 25 1000 bom 388 399 P_____O_____P_ SH111996 -12.92 118.15 40 0 -13.30 117.80 20 25 1000 2.00 107 3 5 -12.92 118.15 TC 40 9 254
1996 SI WA 21:00:00 TS -13.13 117.74 410 410 P_____P_____P_ SH111996 -12.97 117.84 42 0 -13.44 117.53 20 28 998 107 -12.97 117.84 TC 42 9 254
1996 SI WA 22:00:00 TS -13.17 117.59 30 998 bom 424 424 P_____O_____P_ SH111996 -13.00 117.69 43 0 -13.50 117.40 20 30 998 2.50 107 3 5 -13.00 117.69 TC 43 9 250
1996 SI WA 1996-01-29 00:00:00 TS -13.28 117.31 448 448 O_____P_____O_ jtwc_sh SH111996 -13.10 117.40 45 0 -13.63 117.13 20 30 998 107 -13.10 117.40 TC 45 9 247
1996 SI WA 01:00:00 TS -13.35 117.17 30 998 bom 453 468 P_____O_____P_ SH111996 -13.17 117.25 45 0 -13.70 117.00 20 30 998 2.50 107 3 5 -13.17 117.25 TC 45 9 240
1996 SI WA 03:00:00 TS -13.50 116.91 488 488 P_____P_____P_ SH111996 -13.34 116.96 45 0 -13.84 116.79 20 30 998 124 -13.34 116.96 TC 45 9 237
1996 SI WA 04:00:00 TS -13.58 116.79 30 998 bom 503 503 P_____O_____P_ SH111996 -13.42 116.83 45 0 -13.90 116.70 20 30 998 2.50 134 3 5 -13.42 116.83 TC 45 8 237
1996 SI WA 06:00:00 TS -13.72 116.56 517 517 O_____P_____O_ jtwc_sh SH111996 -13.60 116.60 45 0 -13.96 116.49 20 33 996 134 -13.60 116.60 TC 45 7 237
1996 SI WA 07:00:00 TS -13.78 116.47 35 995 bom 529 529 P_____O_____P_ SH111996 -13.67 116.51 45 0 -14.00 116.40 30 35 995 3.00 134 3 5 -13.67 116.51 TC 45 6 230
1996 SI WA 09:00:00 TS -13.92 116.32 542 542 P_____P_____P_ SH111996 -13.81 116.35 45 0 -14.15 116.25 30 35 995 134 -13.81 116.35 TC 45 6 226
1996 SI WA 10:00:00 TS -13.98 116.26 35 995 bom 554 554 P_____O_____P_ SH111996 -13.87 116.30 45 0 -14.20 116.20 30 35 995 3.00 134 3 5 -13.87 116.30 TC 45 3 223
1996 SI WA 12:00:00 TS -14.05 116.20 555 555 O_____P_____O_ jtwc_sh SH111996 -14.00 116.20 45 0 -14.14 116.19 30 35 995 134 -14.00 116.20 TC 45 3 220
1996 SI WA 13:00:00 TS -14.08 116.17 35 995 bom 566 566 P_____O_____P_ SH111996 -14.07 116.16 45 0 -14.10 116.20 30 35 995 3.00 134 3 5 -14.07 116.16 TC 45 3 207
1996 SI WA 15:00:00 TS -14.17 116.12 579 579 P_____P_____P_ SH111996 -14.21 116.08 45 0 -14.09 116.20 30 35 995 134 -14.21 116.08 TC 45 3 208
1996 SI WA 16:00:00 TS -14.22 116.10 35 995 bom 579 579 P_____O_____P_ SH111996 -14.28 116.06 45 0 -14.10 116.20 30 35 995 3.00 134 3 5 -14.28 116.06 TC 45 3 204
1996 SI WA 18:00:00 TS -14.30 116.07 590 590 O_____P_____O_ jtwc_sh SH111996 -14.40 116.00 45 0 -14.10 116.20 30 35 995 134 -14.40 116.00 TC 45 2 206
1996 SI WA 19:00:00 TS -14.33 116.04 35 995 bom 592 592 P_____O_____P_ SH111996 -14.44 115.97 45 0 -14.10 116.20 30 35 995 3.00 134 3 5 -14.44 115.97 TC 45 2 219
1996 SI WA 21:00:00 TS -14.37 116.00 603 603 P_____P_____P_ SH111996 -14.51 115.90 45 0 -14.09 116.21 30 35 995 134 -14.51 115.90 TC 45 2 230
1996 SI WA 22:00:00 TS -14.39 115.98 35 995 bom 603 603 P_____O_____P_ SH111996 -14.54 115.87 45 0 -14.10 116.20 30 35 995 3.00 134 3 5 -14.54 115.87 TC 45 2 223
1996 SI WA 1996-01-30 00:00:00 TS -14.45 115.92 616 616 O_____P_____O_ jtwc_sh SH111996 -14.60 115.80 45 0 -14.15 116.15 30 35 995 134 -14.60 115.80 TC 45 3 222
1996 SI WA 01:00:00 TS -14.50 115.88 35 995 bom 616 616 P_____O_____P_ SH111996 -14.64 115.77 45 0 -14.20 116.10 30 35 995 3.00 134 3 5 -14.64 115.77 TC 45 4 225
1996 SI WA 03:00:00 TS -14.60 115.77 629 629 P_____P_____P_ SH111996 -14.74 115.70 45 0 -14.31 115.90 30 35 995 134 -14.74 115.70 TC 45 5 225
1996 SI WA 04:00:00 TS -14.66 115.71 35 995 bom 642 642 P_____O_____P_ SH111996 -14.79 115.67 45 0 -14.40 115.80 30 35 995 3.00 134 3 5 -14.79 115.67 TC 45 5 213
1996 SI WA 06:00:00 TS -14.83 115.62 655 648 O_____P_____O_ jtwc_sh SH111996 -14.90 115.60 45 0 -14.68 115.65 30 35 995 134 -14.90 115.60 TC 45 5 209
1996 SI WA 07:00:00 TS -14.90 115.58 35 995 bom 648 639 P_____O_____P_ SH111996 -14.95 115.56 45 0 -14.80 115.60 30 35 995 3.00 134 3 5 -14.95 115.56 TC 45 4 209
1996 SI WA 09:00:00 TS -14.99 115.52 639 639 P_____P_____P_ SH111996 -15.05 115.49 45 0 -14.87 115.59 30 35 995 134 -15.05 115.49 TC 45 3 206
1996 SI WA 10:00:00 TS -15.03 115.51 35 995 bom 639 617 P_____O_____P_ SH111996 -15.10 115.46 45 0 -14.90 115.60 30 35 995 3.00 134 3 5 -15.10 115.46 TC 45 4 198
1996 SI WA 12:00:00 TS -15.17 115.47 617 617 O_____P_____O_ jtwc_sh SH111996 -15.20 115.40 45 0 -15.10 115.61 30 35 995 134 -15.20 115.40 TC 45 4 195
1996 SI WA 13:00:00 TS -15.23 115.45 35 995 bom 617 608 P_____O_____P_ SH111996 -15.25 115.38 44 0 -15.20 115.60 30 35 995 3.00 134 3 5 -15.25 115.38 TC 44 4 199
1996 SI WA 15:00:00 TS -15.34 115.41 608 597 P_____P_____P_ SH111996 -15.34 115.35 42 0 -15.34 115.54 30 35 995 134 -15.34 115.35 TC 42 4 199
1996 SI WA 16:00:00 TS -15.39 115.39 35 995 bom 597 586 P_____O_____P_ SH111996 -15.39 115.34 41 0 -15.40 115.50 30 35 995 3.00 134 3 5 -15.39 115.34 TC 41 4 203
1996 SI WA 18:00:00 TS -15.51 115.34 589 578 O_____P_____O_ jtwc_sh SH111996 -15.50 115.30 40 0 -15.53 115.43 30 35 995 134 -15.50 115.30 TC 40 4 205
1996 SI WA 19:00:00 TS -15.57 115.31 35 995 bom 578 567 P_____O_____P_ SH111996 -15.56 115.27 40 0 -15.60 115.40 30 35 995 3.00 134 3 5 -15.56 115.27 TC 40 5 201
1996 SI WA 21:00:00 TS -15.73 115.25 570 559 P_____P_____P_ SH111996 -15.69 115.20 40 0 -15.79 115.35 30 35 995 134 -15.69 115.20 TC 40 5 203
1996 SI WA 22:00:00 TS -15.81 115.21 35 995 bom 559 541 P_____O_____P_ SH111996 -15.76 115.16 40 0 -15.90 115.30 30 35 995 3.00 134 3 5 -15.76 115.16 TC 40 6 211
1996 SI WA 1996-01-31 00:00:00 TS -15.97 115.10 541 541 O_____P_____O_ jtwc_sh SH111996 -15.90 115.10 40 0 -16.12 115.09 30 31 996 134 -15.90 115.10 TC 40 6 211
1996 SI WA 01:00:00 TS -16.05 115.06 30 998 bom 541 531 P_____O_____P_ SH111996 -15.97 115.08 39 0 -16.20 115.00 20 30 998 2.50 134 3 5 -15.97 115.08 TC 39 4 200
1996 SI WA 03:00:00 TS -16.14 115.04 534 523 P_____P_____P_ SH111996 -16.11 115.06 37 0 -16.21 114.99 20 30 998 116 -16.11 115.06 TC 37 3 183
1996 SI WA 04:00:00 TS -16.18 115.03 30 998 bom 523 513 P_____O_____P_ SH111996 -16.17 115.04 36 0 -16.20 115.00 20 30 998 2.50 107 3 5 -16.17 115.04 TC 36 3 203
1996 SI WA 06:00:00 TS -16.29 114.98 513 513 O_____P_____O_ jtwc_sh SH111996 -16.30 115.00 35 0 -16.26 114.94 20 26 999 107 -16.30 115.00 TC 35 4 209
1996 SI WA 07:00:00 TS -16.34 114.94 25 1000 bom 517 506 P_____O_____P_ SH111996 -16.36 114.96 34 0 -16.30 114.90 20 25 1000 2.00 107 3 5 -16.36 114.96 TC 34 4 222
1996 SI WA 09:00:00 TS -16.43 114.85 506 500 P_____P_____P_ SH111996 -16.46 114.87 32 -1 -16.37 114.83 20 25 1000 107 -16.46 114.87 TC 32 4 224
1996 SI WA 10:00:00 TS -16.47 114.81 25 1000 bom 500 500 P_____O_____P_ SH111996 -16.51 114.81 31 -1 -16.40 114.80 20 25 1000 2.00 107 3 5 -16.51 114.81 TC 31 3 222
1996 SI WA 12:00:00 TS -16.55 114.73 494 494 O_____P_____O_ jtwc_sh SH111996 -16.60 114.70 30 -1 -16.46 114.80 20 25 1000 89 -16.60 114.70 TC 30 3 220
1996 SI WA 13:00:00 TS -16.60 114.70 25 1000 bom 494 489 P_____O_____P_ SH111996 -16.65 114.65 29 -1 -16.50 114.80 20 25 1000 2.00 80 3 5 -16.65 114.65 TC 29 4 218
1996 SI WA 15:00:00 TS -16.70 114.62 489 489 P_____P_____P_ SH111996 -16.75 114.55 27 -1 -16.63 114.73 20 25 1001 80 -16.75 114.55 TC 27 4 212
1996 SI WA 16:00:00 TS -16.75 114.60 25 1002 bom 489 479 P_____O_____P_ SH111996 -16.80 114.50 26 -1 -16.70 114.70 20 25 1002 1.50 80 3 5 -16.80 114.50 TC 26 3 190
1996 SI WA 18:00:00 TS -16.86 114.60 469 464 O_____P_____O_ jtwc_sh SH111996 -16.90 114.40 25 -1 -16.83 114.69 20 25 1002 80 -16.90 114.40 TC 25 4 146
1996 SI WA 19:00:00 NR -16.90 114.70 25 1002 bom 464 454 ______O_______ SH111996 -1 -16.90 114.70 20 25 1002 1.50 80 3 5 TC 4 150
1996 SI WA 21:00:00 NR -17.03 114.71 454 444 ______P_______ SH111996 -1 -17.03 114.71 20 25 1002 62 TC 4 172
1996 SI WA 22:00:00 NR -17.10 114.70 25 1002 bom 444 434 ______O_______ SH111996 -1 -17.10 114.70 20 25 1002 1.50 53 3 5 TC 4 200
1996 SI WA 1996-02-01 00:00:00 NR -17.23 114.64 439 430 ______P_______ -1 -17.23 114.64 20 25 1002 53 4 207
1996 SI WA 01:00:00 NR -17.30 114.60 25 1002 bom 430 ______O_______ -1 -17.30 114.60 20 25 1002 1.50 53 3 5 5 213